createdAt,value
2022-09-26T00:01:42.744Z,11.60
2022-09-26T00:04:18.455Z,11.60
2022-09-26T00:06:49.322Z,11.60
2022-09-26T00:09:18.968Z,11.50
2022-09-26T00:11:47.373Z,11.50
2022-09-26T00:14:18.686Z,11.60
2022-09-26T00:16:48.347Z,11.60
2022-09-26T00:19:18.881Z,11.60
2022-09-26T00:21:47.438Z,11.60
2022-09-26T00:24:16.163Z,11.50
2022-09-26T00:26:44.830Z,11.40
2022-09-26T00:29:14.491Z,11.50
2022-09-26T00:31:47.390Z,11.40
2022-09-26T00:34:18.541Z,11.40
2022-09-26T00:36:46.808Z,11.40
2022-09-26T00:39:16.902Z,11.50
2022-09-26T00:41:45.636Z,11.40
2022-09-26T00:44:35.740Z,11.40
2022-09-26T00:47:04.984Z,11.40
2022-09-26T00:49:37.040Z,11.40
2022-09-26T00:52:10.510Z,11.30
2022-09-26T00:54:45.255Z,11.20
2022-09-26T00:57:17.762Z,11.20
2022-09-26T00:59:50.302Z,11.20
2022-09-26T01:02:23.328Z,11.20
2022-09-26T01:04:54.341Z,11.20
2022-09-26T01:07:25.228Z,11.20
2022-09-26T01:09:54.308Z,11.20
2022-09-26T01:12:23.591Z,11.20
2022-09-26T01:14:54.094Z,11.20
2022-09-26T01:17:24.628Z,11.10
2022-09-26T01:20:08.565Z,10.90
2022-09-26T01:23:06.757Z,10.90
2022-09-26T01:25:53.153Z,11.00
2022-09-26T01:28:36.428Z,11.00
2022-09-26T01:31:18.769Z,11.00
2022-09-26T01:33:56.105Z,11.10
2022-09-26T01:36:53.058Z,11.10
2022-09-26T01:39:33.888Z,11.10
2022-09-26T01:42:16.373Z,11.10
2022-09-26T01:44:50.271Z,11.10
2022-09-26T01:47:27.483Z,11.00
2022-09-26T01:50:02.302Z,10.90
2022-09-26T01:52:37.401Z,11.00
2022-09-26T01:55:11.220Z,11.00
2022-09-26T01:57:44.571Z,11.00
2022-09-26T02:00:13.870Z,11.10
2022-09-26T02:02:48.514Z,11.10
2022-09-26T02:05:23.537Z,11.10
2022-09-26T02:07:57.107Z,11.10
2022-09-26T02:10:29.966Z,11.00
2022-09-26T02:13:02.343Z,11.00
2022-09-26T02:15:34.991Z,11.00
2022-09-26T02:18:11.864Z,11.00
2022-09-26T02:20:45.286Z,11.00
2022-09-26T02:23:13.466Z,11.00
2022-09-26T02:25:41.708Z,11.00
2022-09-26T02:28:09.906Z,11.00
2022-09-26T02:30:39.228Z,11.00
2022-09-26T02:33:08.954Z,11.00
2022-09-26T02:35:55.178Z,10.90
2022-09-26T02:38:29.165Z,11.00
2022-09-26T02:41:17.727Z,11.00
2022-09-26T02:44:03.952Z,11.00
2022-09-26T02:47:00.004Z,11.00
2022-09-26T02:49:51.951Z,10.90
2022-09-26T02:52:34.941Z,10.90
2022-09-26T02:55:13.230Z,11.00
2022-09-26T02:57:48.237Z,10.90
2022-09-26T03:00:21.100Z,10.90
2022-09-26T03:02:56.351Z,10.90
2022-09-26T03:05:28.665Z,10.90
2022-09-26T03:08:02.008Z,10.90
2022-09-26T03:10:32.743Z,10.90
2022-09-26T03:13:05.264Z,10.90
2022-09-26T03:15:35.348Z,10.80
2022-09-26T03:18:08.693Z,10.90
2022-09-26T03:20:38.598Z,10.90
2022-09-26T03:23:06.786Z,10.90
2022-09-26T03:25:35.112Z,10.90
2022-09-26T03:28:06.466Z,10.90
2022-09-26T03:30:35.300Z,10.80
2022-09-26T03:33:21.603Z,10.80
2022-09-26T03:35:52.306Z,10.80
2022-09-26T03:38:22.070Z,10.80
2022-09-26T03:40:59.536Z,10.80
2022-09-26T03:43:50.823Z,10.70
2022-09-26T03:46:20.436Z,10.70
2022-09-26T03:48:49.105Z,10.70
2022-09-26T03:51:21.012Z,10.70
2022-09-26T03:53:49.312Z,10.70
2022-09-26T03:56:21.478Z,10.70
2022-09-26T03:58:49.977Z,10.70
2022-09-26T04:01:20.993Z,10.70
2022-09-26T04:03:51.411Z,10.70
2022-09-26T04:06:21.838Z,10.70
2022-09-26T04:08:52.945Z,10.70
2022-09-26T04:11:24.494Z,10.80
2022-09-26T04:13:54.360Z,10.80
2022-09-26T04:16:27.806Z,10.80
2022-09-26T04:19:03.106Z,10.70
2022-09-26T04:21:34.334Z,10.70
2022-09-26T04:24:03.700Z,10.70
2022-09-26T04:26:32.225Z,10.70
2022-09-26T04:29:00.474Z,10.70
2022-09-26T04:31:53.897Z,10.70
2022-09-26T04:34:27.757Z,10.70
2022-09-26T04:37:00.454Z,10.70
2022-09-26T04:39:28.985Z,10.70
2022-09-26T04:41:58.509Z,10.70
2022-09-26T04:44:27.031Z,10.70
2022-09-26T04:46:55.516Z,10.80
2022-09-26T04:49:33.476Z,10.80
2022-09-26T04:52:03.115Z,10.80
2022-09-26T04:54:31.421Z,10.80
2022-09-26T04:57:00.938Z,10.80
2022-09-26T04:59:29.064Z,10.80
2022-09-26T05:02:03.509Z,10.90
2022-09-26T05:04:38.022Z,10.90
2022-09-26T05:07:07.605Z,10.90
2022-09-26T05:09:36.233Z,10.90
2022-09-26T05:12:13.926Z,10.90
2022-09-26T05:14:45.872Z,10.90
2022-09-26T05:17:15.471Z,10.90
2022-09-26T05:19:45.771Z,10.90
2022-09-26T05:22:35.862Z,10.90
2022-09-26T05:25:22.657Z,10.90
2022-09-26T05:27:51.350Z,10.90
2022-09-26T05:30:21.053Z,10.90
2022-09-26T05:32:50.034Z,10.80
2022-09-26T05:35:18.790Z,10.80
2022-09-26T05:37:48.583Z,10.80
2022-09-26T05:40:34.605Z,10.80
2022-09-26T05:43:03.169Z,10.80
2022-09-26T05:45:32.650Z,10.80
2022-09-26T05:48:03.342Z,10.90
2022-09-26T05:50:32.282Z,10.80
2022-09-26T05:53:02.495Z,10.80
2022-09-26T05:55:31.324Z,10.80
2022-09-26T05:58:18.929Z,10.80
2022-09-26T06:01:07.775Z,10.90
2022-09-26T06:03:37.840Z,10.90
2022-09-26T06:06:23.228Z,10.90
2022-09-26T06:08:58.296Z,11.00
2022-09-26T06:11:45.560Z,11.00
2022-09-26T06:14:14.011Z,11.00
2022-09-26T06:16:42.223Z,11.00
2022-09-26T06:19:10.355Z,11.10
2022-09-26T06:21:40.133Z,11.10
2022-09-26T06:24:14.243Z,11.20
2022-09-26T06:26:43.704Z,11.20
2022-09-26T06:29:12.179Z,11.20
2022-09-26T06:31:43.236Z,11.30
2022-09-26T06:34:12.902Z,11.30
2022-09-26T06:37:08.112Z,11.40
2022-09-26T06:39:37.805Z,11.30
2022-09-26T06:42:08.296Z,11.40
2022-09-26T06:44:49.459Z,11.30
2022-09-26T06:47:27.098Z,11.30
2022-09-26T06:50:16.045Z,11.30
2022-09-26T06:52:47.895Z,11.30
2022-09-26T06:55:17.594Z,11.30
2022-09-26T06:57:46.592Z,11.30
2022-09-26T07:00:16.885Z,11.30
2022-09-26T07:03:15.977Z,11.30
2022-09-26T07:05:49.171Z,11.40
2022-09-26T07:08:17.965Z,11.50
2022-09-26T07:10:48.180Z,11.50
2022-09-26T07:13:26.183Z,11.50
2022-09-26T07:15:58.447Z,11.60
2022-09-26T07:19:02.211Z,11.60
2022-09-26T07:21:37.453Z,11.70
2022-09-26T07:24:27.190Z,11.70
2022-09-26T07:26:56.812Z,11.80
2022-09-26T07:29:24.985Z,11.80
2022-09-26T07:31:53.927Z,11.90
2022-09-26T07:34:42.872Z,11.90
2022-09-26T07:37:15.575Z,12.00
2022-09-26T07:39:43.755Z,12.00
2022-09-26T07:42:14.163Z,12.00
2022-09-26T07:47:52.018Z,12.10
2022-09-26T07:50:39.221Z,12.20
2022-09-26T07:53:24.210Z,12.30
2022-09-26T07:56:34.368Z,12.30
2022-09-26T07:59:22.792Z,12.10
2022-09-26T08:02:04.112Z,12.20
2022-09-26T08:04:35.583Z,12.30
2022-09-26T08:07:04.894Z,12.40
2022-09-26T08:09:38.970Z,12.30
2022-09-26T08:12:26.998Z,12.30
2022-09-26T08:15:13.859Z,12.40
2022-09-26T08:17:46.083Z,12.50
2022-09-26T08:20:14.788Z,12.50
2022-09-26T08:22:43.200Z,12.60
2022-09-26T08:25:15.322Z,12.70
2022-09-26T08:28:07.983Z,12.60
2022-09-26T08:30:38.055Z,12.70
2022-09-26T08:33:07.075Z,12.80
2022-09-26T08:35:40.242Z,12.90
2022-09-26T08:38:18.793Z,13.00
2022-09-26T08:41:22.141Z,13.00
2022-09-26T08:44:28.132Z,13.20
2022-09-26T08:47:44.504Z,13.30
2022-09-26T08:50:40.796Z,13.40
2022-09-26T08:53:13.512Z,13.40
2022-09-26T08:55:57.165Z,13.30
2022-09-26T08:58:29.459Z,13.40
2022-09-26T09:01:04.263Z,13.50
2022-09-26T09:03:53.886Z,13.80
2022-09-26T09:06:22.874Z,13.90
2022-09-26T09:08:55.234Z,14.00
2022-09-26T09:11:51.322Z,13.90
2022-09-26T09:14:37.253Z,13.80
2022-09-26T09:17:42.338Z,13.60
2022-09-26T09:20:37.654Z,13.60
2022-09-26T09:23:54.800Z,13.60
2022-09-26T09:29:49.408Z,13.60
2022-09-26T09:32:45.795Z,13.70
2022-09-26T09:35:21.560Z,13.90
2022-09-26T09:38:07.088Z,13.80
2022-09-26T09:41:02.280Z,13.90
2022-09-26T09:43:36.431Z,13.90
2022-09-26T09:46:11.370Z,14.00
2022-09-26T09:48:41.170Z,14.10
2022-09-26T09:51:20.920Z,14.20
2022-09-26T09:54:11.344Z,14.20
2022-09-26T09:56:52.032Z,14.10
2022-09-26T09:59:41.426Z,14.20
2022-09-26T10:02:22.084Z,14.20
2022-09-26T10:04:56.659Z,14.20
2022-09-26T10:07:25.122Z,14.30
2022-09-26T10:10:21.004Z,14.40
2022-09-26T10:13:12.007Z,14.10
2022-09-26T10:16:03.565Z,14.10
2022-09-26T10:19:06.757Z,14.10
2022-09-26T10:21:39.223Z,14.40
2022-09-26T10:24:22.347Z,14.40
2022-09-26T10:26:53.971Z,14.40
2022-09-26T10:29:35.228Z,14.70
2022-09-26T10:32:04.568Z,14.90
2022-09-26T10:34:35.514Z,15.00
2022-09-26T10:37:22.562Z,15.20
2022-09-26T10:40:13.910Z,15.30
2022-09-26T10:42:46.980Z,15.40
2022-09-26T10:45:19.689Z,14.90
2022-09-26T10:48:00.118Z,14.60
2022-09-26T10:51:00.522Z,14.80
2022-09-26T10:53:47.614Z,14.90
2022-09-26T10:56:23.416Z,15.00
2022-09-26T10:58:58.302Z,15.00
2022-09-26T11:01:31.301Z,14.90
2022-09-26T11:04:14.333Z,14.50
2022-09-26T11:07:10.910Z,14.40
2022-09-26T11:10:05.955Z,14.60
2022-09-26T11:12:59.851Z,15.00
2022-09-26T11:15:30.631Z,15.30
2022-09-26T11:17:59.427Z,15.70
2022-09-26T11:20:40.589Z,15.50
2022-09-26T11:23:18.530Z,15.60
2022-09-26T11:25:58.401Z,15.90
2022-09-26T11:28:34.257Z,15.90
2022-09-26T11:31:26.702Z,15.20
2022-09-26T11:34:17.782Z,14.90
2022-09-26T11:37:31.486Z,14.80
2022-09-26T11:40:18.044Z,14.90
2022-09-26T11:42:57.788Z,14.90
2022-09-26T11:45:45.184Z,14.80
2022-09-26T11:48:59.663Z,14.60
2022-09-26T11:52:01.014Z,14.50
2022-09-26T11:54:58.806Z,14.70
2022-09-26T11:57:38.201Z,14.60
2022-09-26T12:00:24.553Z,14.80
2022-09-26T12:03:26.178Z,15.50
2022-09-26T12:06:02.750Z,17.10
2022-09-26T12:08:57.809Z,17.00
2022-09-26T12:11:34.211Z,16.10
2022-09-26T12:14:14.017Z,15.90
2022-09-26T12:16:52.259Z,15.50
2022-09-26T12:19:34.994Z,15.30
2022-09-26T12:22:27.575Z,15.60
2022-09-26T12:25:22.149Z,15.70
2022-09-26T12:28:01.661Z,16.30
2022-09-26T12:30:36.511Z,16.20
2022-09-26T12:33:30.941Z,15.90
2022-09-26T12:36:05.805Z,15.70
2022-09-26T12:38:57.965Z,15.20
2022-09-26T12:41:41.476Z,15.30
2022-09-26T12:44:34.239Z,15.30
2022-09-26T12:47:28.694Z,15.30
2022-09-26T12:50:21.264Z,15.30
2022-09-26T12:53:19.273Z,15.20
2022-09-26T12:55:56.881Z,15.30
2022-09-26T12:58:36.901Z,15.10
2022-09-26T13:01:27.623Z,14.80
2022-09-26T13:04:19.122Z,14.70
2022-09-26T13:07:20.450Z,14.70
2022-09-26T13:10:23.498Z,14.70
2022-09-26T13:13:40.147Z,14.80
2022-09-26T13:16:31.881Z,14.90
2022-09-26T13:19:07.148Z,15.20
2022-09-26T13:21:45.478Z,15.30
2022-09-26T13:24:18.805Z,15.20
2022-09-26T13:26:52.935Z,15.00
2022-09-26T13:29:26.322Z,15.00
2022-09-26T13:32:06.357Z,15.00
2022-09-26T13:34:39.854Z,14.90
2022-09-26T13:37:17.487Z,14.60
2022-09-26T13:39:51.352Z,14.70
2022-09-26T13:42:26.592Z,14.80
2022-09-26T13:45:08.468Z,14.60
2022-09-26T13:47:46.562Z,14.50
2022-09-26T13:50:23.331Z,14.50
2022-09-26T13:53:04.495Z,14.50
2022-09-26T13:55:32.897Z,14.50
2022-09-26T13:58:07.903Z,14.60
2022-09-26T14:00:49.310Z,14.70
2022-09-26T14:03:41.820Z,14.90
2022-09-26T14:06:37.408Z,15.00
2022-09-26T14:09:27.215Z,15.10
2022-09-26T14:12:22.357Z,15.10
2022-09-26T14:15:15.417Z,15.00
2022-09-26T14:18:06.651Z,15.00
2022-09-26T14:20:53.144Z,15.00
2022-09-26T14:23:38.009Z,15.00
2022-09-26T14:26:20.964Z,15.00
2022-09-26T14:28:54.953Z,14.80
2022-09-26T14:31:39.085Z,14.70
2022-09-26T14:34:24.350Z,14.80
2022-09-26T14:36:56.924Z,14.90
2022-09-26T14:39:33.170Z,14.90
2022-09-26T14:42:10.028Z,14.80
2022-09-26T14:44:40.567Z,14.90
2022-09-26T14:47:17.162Z,14.80
2022-09-26T14:49:55.389Z,14.80
2022-09-26T14:52:26.340Z,14.70
2022-09-26T14:55:01.087Z,14.70
2022-09-26T14:57:32.535Z,14.70
2022-09-26T15:00:03.736Z,14.70
2022-09-26T15:02:39.474Z,14.80
2022-09-26T15:05:20.048Z,14.90
2022-09-26T15:07:51.414Z,14.90
2022-09-26T15:10:27.200Z,14.90
2022-09-26T15:13:01.958Z,14.90
2022-09-26T15:15:42.885Z,14.80
2022-09-26T15:18:18.164Z,14.80
2022-09-26T15:20:52.019Z,14.80
2022-09-26T15:23:29.466Z,14.70
2022-09-26T15:26:02.632Z,14.70
2022-09-26T15:28:34.748Z,14.70
2022-09-26T15:31:38.496Z,14.70
2022-09-26T15:34:16.271Z,14.60
2022-09-26T15:36:47.470Z,14.60
2022-09-26T15:39:44.174Z,14.60
2022-09-26T15:42:43.512Z,14.60
2022-09-26T15:45:26.274Z,14.60
2022-09-26T15:47:56.866Z,14.50
2022-09-26T15:50:34.349Z,14.60
2022-09-26T15:53:09.206Z,14.50
2022-09-26T15:55:50.033Z,14.50
2022-09-26T15:58:22.546Z,14.40
2022-09-26T16:00:52.866Z,14.40
2022-09-26T16:03:38.849Z,14.40
2022-09-26T16:06:22.121Z,14.40
2022-09-26T16:08:55.190Z,14.40
2022-09-26T16:11:25.639Z,14.40
2022-09-26T16:13:56.575Z,14.40
2022-09-26T16:16:32.018Z,14.30
2022-09-26T16:19:03.210Z,14.30
2022-09-26T16:21:34.115Z,14.30
2022-09-26T16:24:27.463Z,14.30
2022-09-26T16:26:57.586Z,14.30
2022-09-26T16:29:34.609Z,14.30
2022-09-26T16:32:04.115Z,14.20
2022-09-26T16:34:32.885Z,14.20
2022-09-26T16:37:01.301Z,14.20
2022-09-26T16:39:31.161Z,14.20
2022-09-26T16:42:05.809Z,14.10
2022-09-26T16:44:37.367Z,14.10
2022-09-26T16:47:22.170Z,14.10
2022-09-26T16:49:50.546Z,14.10
2022-09-26T16:52:35.702Z,14.10
2022-09-26T16:55:06.966Z,14.10
2022-09-26T16:57:38.912Z,14.10
2022-09-26T17:00:33.847Z,14.00
2022-09-26T17:03:02.296Z,14.00
2022-09-26T17:05:30.761Z,14.10
2022-09-26T17:07:59.037Z,14.00
2022-09-26T17:10:27.818Z,14.00
2022-09-26T17:13:02.556Z,14.00
2022-09-26T17:15:32.699Z,14.00
2022-09-26T17:18:12.228Z,14.00
2022-09-26T17:20:44.818Z,14.00
2022-09-26T17:23:35.320Z,14.00
2022-09-26T17:26:02.821Z,14.00
2022-09-26T17:28:37.313Z,14.00
2022-09-26T17:31:07.779Z,13.90
2022-09-26T17:33:40.357Z,13.90
2022-09-26T17:36:11.611Z,13.90
2022-09-26T17:38:40.347Z,13.80
2022-09-26T17:41:10.475Z,13.80
2022-09-26T17:43:40.273Z,13.80
2022-09-26T17:46:15.373Z,13.80
2022-09-26T17:48:45.174Z,13.70
2022-09-26T17:51:15.006Z,13.70
2022-09-26T17:53:50.343Z,13.60
2022-09-26T17:56:19.539Z,13.60
2022-09-26T17:58:51.807Z,13.50
2022-09-26T18:01:24.014Z,13.50
2022-09-26T18:03:56.516Z,13.50
2022-09-26T18:06:27.411Z,13.40
2022-09-26T18:09:01.330Z,13.40
2022-09-26T18:11:30.310Z,13.40
2022-09-26T18:14:01.651Z,13.30
2022-09-26T18:16:31.123Z,13.20
2022-09-26T18:19:04.703Z,13.20
2022-09-26T18:21:35.910Z,13.10
2022-09-26T18:24:06.729Z,13.00
2022-09-26T18:26:41.982Z,12.90
2022-09-26T18:29:15.299Z,12.80
2022-09-26T18:31:46.888Z,12.60
2022-09-26T18:34:18.943Z,12.50
2022-09-26T18:36:51.077Z,12.50
2022-09-26T18:39:19.523Z,12.40
2022-09-26T18:41:50.743Z,12.40
2022-09-26T18:44:20.653Z,12.20
2022-09-26T18:46:49.383Z,12.10
2022-09-26T18:49:18.449Z,12.10
2022-09-26T18:51:47.481Z,12.00
2022-09-26T18:54:17.996Z,11.90
2022-09-26T18:57:03.762Z,12.00
2022-09-26T18:59:33.456Z,11.90
2022-09-26T19:02:02.719Z,11.90
2022-09-26T19:04:31.936Z,11.90
2022-09-26T19:07:02.008Z,11.90
2022-09-26T19:09:34.372Z,11.90
2022-09-26T19:12:03.099Z,11.90
2022-09-26T19:14:34.099Z,11.90
2022-09-26T19:17:02.999Z,12.00
2022-09-26T19:19:32.527Z,12.00
2022-09-26T19:22:02.160Z,12.00
2022-09-26T19:24:35.358Z,12.10
2022-09-26T19:27:08.993Z,12.00
2022-09-26T19:29:43.403Z,12.00
2022-09-26T19:32:19.622Z,12.00
2022-09-26T19:34:52.002Z,11.90
2022-09-26T19:37:20.356Z,11.90
2022-09-26T19:39:51.283Z,11.90
2022-09-26T19:42:19.745Z,11.80
2022-09-26T19:44:51.194Z,11.70
2022-09-26T19:47:22.584Z,11.60
2022-09-26T19:49:53.618Z,11.60
2022-09-26T19:52:23.165Z,11.50
2022-09-26T19:54:54.148Z,11.50
2022-09-26T19:57:23.678Z,11.50
2022-09-26T20:00:05.086Z,11.50
2022-09-26T20:02:33.790Z,11.40
2022-09-26T20:05:02.474Z,11.40
2022-09-26T20:07:30.852Z,11.30
2022-09-26T20:09:59.118Z,11.20
2022-09-26T20:12:27.521Z,11.20
2022-09-26T20:14:57.444Z,11.20
2022-09-26T20:17:27.665Z,11.20
2022-09-26T20:19:59.131Z,11.20
2022-09-26T20:22:27.800Z,11.10
2022-09-26T20:24:56.984Z,11.10
2022-09-26T20:27:27.847Z,11.10
2022-09-26T20:30:16.123Z,11.10
2022-09-26T20:32:44.525Z,11.00
2022-09-26T20:35:15.470Z,11.00
2022-09-26T20:37:44.854Z,11.00
2022-09-26T20:40:18.657Z,10.90
2022-09-26T20:42:49.120Z,10.90
2022-09-26T20:45:23.633Z,10.90
2022-09-26T20:47:52.198Z,10.90
2022-09-26T20:50:21.612Z,10.90
2022-09-26T20:52:50.078Z,10.80
2022-09-26T20:55:20.542Z,10.80
2022-09-26T20:57:50.679Z,10.80
2022-09-26T21:00:22.042Z,10.70
2022-09-26T21:02:54.432Z,10.70
2022-09-26T21:05:25.253Z,10.70
2022-09-26T21:07:54.751Z,10.60
2022-09-26T21:10:28.468Z,10.60
2022-09-26T21:12:57.254Z,10.60
2022-09-26T21:15:29.282Z,10.60
2022-09-26T21:17:58.534Z,10.60
2022-09-26T21:20:28.929Z,10.60
2022-09-26T21:23:19.064Z,10.60
2022-09-26T21:25:48.212Z,10.60
2022-09-26T21:28:26.207Z,10.60
2022-09-26T21:30:58.141Z,10.60
2022-09-26T21:33:26.630Z,10.50
2022-09-26T21:35:55.040Z,10.60
2022-09-26T21:38:23.506Z,10.60
2022-09-26T21:40:56.175Z,10.60
2022-09-26T21:43:27.991Z,10.60
2022-09-26T21:45:57.827Z,10.60
2022-09-26T21:48:26.107Z,10.60
2022-09-26T21:50:58.469Z,10.60
2022-09-26T21:53:31.144Z,10.60
2022-09-26T21:56:07.276Z,10.60
2022-09-26T21:58:39.129Z,10.60
2022-09-26T22:01:09.131Z,10.60
2022-09-26T22:03:37.535Z,10.60
2022-09-26T22:06:09.241Z,10.60
2022-09-26T22:08:37.772Z,10.60
2022-09-26T22:11:06.919Z,10.60
2022-09-26T22:13:36.831Z,10.60
2022-09-26T22:16:08.449Z,10.60
2022-09-26T22:18:38.900Z,10.50
2022-09-26T22:21:10.420Z,10.50
2022-09-26T22:23:38.937Z,10.50
2022-09-26T22:26:08.361Z,10.50
2022-09-26T22:28:36.750Z,10.50
2022-09-26T22:31:05.935Z,10.40
2022-09-26T22:33:35.683Z,10.40
2022-09-26T22:36:04.587Z,10.40
2022-09-26T22:38:34.855Z,10.40
2022-09-26T22:41:05.853Z,10.40
2022-09-26T22:43:35.070Z,10.40
2022-09-26T22:46:04.729Z,10.30
2022-09-26T22:48:36.123Z,10.40
2022-09-26T22:51:05.343Z,10.40
2022-09-26T22:53:35.746Z,10.40
2022-09-26T22:56:05.282Z,10.40
2022-09-26T22:58:36.604Z,10.30
2022-09-26T23:01:06.152Z,10.40
2022-09-26T23:03:36.330Z,10.40
2022-09-26T23:06:08.307Z,10.40
2022-09-26T23:08:37.277Z,10.40
2022-09-26T23:11:07.009Z,10.40
2022-09-26T23:13:36.331Z,10.40
2022-09-26T23:16:06.275Z,10.40
2022-09-26T23:18:36.769Z,10.40
2022-09-26T23:21:09.026Z,10.40
2022-09-26T23:23:38.932Z,10.50
2022-09-26T23:26:08.277Z,10.50
2022-09-26T23:28:37.173Z,10.50
2022-09-26T23:31:06.987Z,10.50
2022-09-26T23:33:37.535Z,10.50
2022-09-26T23:36:09.323Z,10.50
2022-09-26T23:38:39.493Z,10.50
2022-09-26T23:41:08.964Z,10.50
2022-09-26T23:43:37.791Z,10.50
2022-09-26T23:46:08.874Z,10.50
2022-09-26T23:48:39.332Z,10.50
2022-09-26T23:51:07.963Z,10.50
2022-09-26T23:53:36.699Z,10.40
2022-09-26T23:56:06.351Z,10.50
2022-09-26T23:58:34.955Z,10.60
